Time;durP1;ratioP1;P1;durP2;ratioP2;P2;SDS_P1;SDS_P2;PMS_P1;PMS_P2;Temp;Humidity;BMP_temperature;BMP_pressure;BME280_temperature;BME280_humidity;BME280_pressure;Samples;Min_cycle;Max_cycle;Signal;HPM_P1;HPM_P2
2021/05/28 00:02:02;;;;;;;1.40;0.82;;;;;;;;;;4916491;28;20685;-80
2021/05/28 00:04:29;;;;;;;1.00;0.70;;;;;;;;;;4936453;28;20736;-81
2021/05/28 00:06:55;;;;;;;0.88;0.63;;;;;;;;;;4926586;28;20071;-81
2021/05/28 00:09:22;;;;;;;1.15;0.70;;;;;;;;;;4927020;28;20064;-80
2021/05/28 00:11:48;;;;;;;1.63;0.80;;;;;;;;;;4934095;28;20095;-80
2021/05/28 00:14:15;;;;;;;1.42;0.82;;;;;;;;;;4920074;28;20142;-80
2021/05/28 00:16:41;;;;;;;0.82;0.60;;;;;;;;;;4936424;28;20075;-80
2021/05/28 00:19:07;;;;;;;0.90;0.60;;;;;;;;;;4923655;28;20562;-80
2021/05/28 00:21:34;;;;;;;1.58;0.70;;;;;;;;;;4926016;28;20075;-80
2021/05/28 00:24:01;;;;;;;1.63;0.90;;;;;;;;;;4924959;28;20079;-80
2021/05/28 00:26:27;;;;;;;1.08;0.60;;;;;;;;;;4919575;28;20047;-81
2021/05/28 00:28:54;;;;;;;1.40;0.80;;;;;;;;;;4917209;28;20079;-81
2021/05/28 00:31:20;;;;;;;1.38;0.85;;;;;;;;;;4935140;28;20100;-80
2021/05/28 00:33:47;;;;;;;1.00;0.68;;;;;;;;;;4944006;28;20560;-80
2021/05/28 00:36:14;;;;;;;1.38;0.70;;;;;;;;;;4932350;28;20686;-80
2021/05/28 00:38:40;;;;;;;1.20;0.80;;;;;;;;;;4911585;28;20123;-80
2021/05/28 00:41:06;;;;;;;1.00;0.70;;;;;;;;;;4920953;28;20091;-80
2021/05/28 00:43:33;;;;;;;1.38;1.02;;;;;;;;;;4926824;28;20500;-80
2021/05/28 00:45:59;;;;;;;1.08;0.70;;;;;;;;;;4932791;28;20064;-80
2021/05/28 00:48:26;;;;;;;1.10;0.80;;;;;;;;;;4936415;28;20575;-81
2021/05/28 00:50:52;;;;;;;1.63;0.95;;;;;;;;;;4938369;28;20778;-81
2021/05/28 00:53:19;;;;;;;1.08;0.75;;;;;;;;;;4914313;28;20134;-81
2021/05/28 00:55:46;;;;;;;1.80;0.80;;;;;;;;;;4937257;28;20578;-81
2021/05/28 00:58:13;;;;;;;1.30;0.80;;;;;;;;;;4919110;28;20063;-81
2021/05/28 01:00:39;;;;;;;0.88;0.65;;;;;;;;;;4923832;28;20488;-80
2021/05/28 01:03:05;;;;;;;1.38;0.80;;;;;;;;;;4934606;28;20123;-80
2021/05/28 01:05:32;;;;;;;1.10;0.75;;;;;;;;;;4940154;28;20063;-81
2021/05/28 01:07:59;;;;;;;2.30;0.80;;;;;;;;;;4939646;28;20063;-81
2021/05/28 01:10:25;;;;;;;1.08;0.80;;;;;;;;;;4913966;28;20523;-81
2021/05/28 01:12:52;;;;;;;1.30;0.90;;;;;;;;;;4929447;28;20071;-80
2021/05/28 01:15:18;;;;;;;1.63;0.80;;;;;;;;;;4940853;28;20065;-80
2021/05/28 01:17:44;;;;;;;1.10;0.70;;;;;;;;;;4924644;28;20056;-80
2021/05/28 01:20:11;;;;;;;1.75;0.70;;;;;;;;;;4920486;28;20536;-80
2021/05/28 01:22:38;;;;;;;1.60;0.90;;;;;;;;;;4922650;29;20067;-80
2021/05/28 01:25:05;;;;;;;1.20;0.80;;;;;;;;;;4943074;28;20927;-81
2021/05/28 01:27:32;;;;;;;1.45;1.00;;;;;;;;;;4921550;28;20070;-82
2021/05/28 01:29:58;;;;;;;1.45;0.85;;;;;;;;;;4941573;28;20055;-81
2021/05/28 01:32:25;;;;;;;1.33;0.70;;;;;;;;;;4934736;28;20069;-81
2021/05/28 01:34:51;;;;;;;1.63;0.90;;;;;;;;;;4924020;28;20059;-81
2021/05/28 01:37:18;;;;;;;1.85;0.90;;;;;;;;;;4928955;28;20161;-81
2021/05/28 01:39:45;;;;;;;1.30;0.80;;;;;;;;;;4931823;28;20516;-81
2021/05/28 01:42:12;;;;;;;1.60;0.70;;;;;;;;;;4935897;28;20142;-81
2021/05/28 01:44:38;;;;;;;1.20;0.80;;;;;;;;;;4929790;28;20074;-81
2021/05/28 01:47:05;;;;;;;1.17;0.70;;;;;;;;;;4931404;28;20068;-81
2021/05/28 01:49:31;;;;;;;1.20;0.80;;;;;;;;;;4924345;28;20374;-80
2021/05/28 01:51:58;;;;;;;2.10;0.90;;;;;;;;;;4931914;28;20064;-80
2021/05/28 01:54:24;;;;;;;1.10;0.70;;;;;;;;;;4937876;28;20520;-81
2021/05/28 01:56:51;;;;;;;1.17;0.75;;;;;;;;;;4923272;28;20588;-81
2021/05/28 01:59:24;;;;;;;1.33;0.80;;;;;;;;;;4921593;28;20100;-81
2021/05/28 02:01:51;;;;;;;1.00;0.80;;;;;;;;;;4941564;28;20067;-81
2021/05/28 02:04:18;;;;;;;1.40;0.90;;;;;;;;;;4919604;28;20729;-82
2021/05/28 02:06:45;;;;;;;1.40;0.90;;;;;;;;;;4944211;28;20051;-81
2021/05/28 02:09:11;;;;;;;1.13;0.80;;;;;;;;;;4926922;28;20126;-81
2021/05/28 02:11:37;;;;;;;1.67;0.95;;;;;;;;;;4940694;28;20472;-82
2021/05/28 02:14:07;;;;;;;1.25;0.85;;;;;;;;;;4932789;28;20118;-80
2021/05/28 02:16:34;;;;;;;1.70;1.00;;;;;;;;;;4933869;28;20080;-81
2021/05/28 02:19:00;;;;;;;1.27;0.88;;;;;;;;;;4929444;28;20917;-80
2021/05/28 02:21:30;;;;;;;1.30;1.00;;;;;;;;;;4944220;28;20514;-82
2021/05/28 02:23:57;;;;;;;1.33;0.80;;;;;;;;;;4927494;28;20063;-83
2021/05/28 02:26:23;;;;;;;1.42;1.00;;;;;;;;;;4917551;28;20090;-81
2021/05/28 02:28:50;;;;;;;1.70;1.08;;;;;;;;;;4903960;29;20154;-81
2021/05/28 02:31:16;;;;;;;1.58;1.05;;;;;;;;;;4940207;28;20067;-81
2021/05/28 02:33:43;;;;;;;1.55;1.10;;;;;;;;;;4934834;28;20059;-80
2021/05/28 02:36:09;;;;;;;1.50;1.00;;;;;;;;;;4922601;28;20539;-81
2021/05/28 02:38:36;;;;;;;1.95;1.08;;;;;;;;;;4921734;28;20095;-82
2021/05/28 02:41:03;;;;;;;1.60;1.00;;;;;;;;;;4913553;28;20060;-81
2021/05/28 02:43:29;;;;;;;1.77;1.00;;;;;;;;;;4924856;28;20122;-81
2021/05/28 02:45:56;;;;;;;1.55;1.10;;;;;;;;;;4922690;28;20147;-81
2021/05/28 02:48:23;;;;;;;1.50;1.05;;;;;;;;;;4933875;28;20138;-82
2021/05/28 02:50:49;;;;;;;1.35;1.00;;;;;;;;;;4929316;28;20074;-81
2021/05/28 02:53:19;;;;;;;1.52;1.10;;;;;;;;;;4926510;28;20466;-81
2021/05/28 02:55:45;;;;;;;1.48;1.00;;;;;;;;;;4913333;29;20161;-81
2021/05/28 02:58:12;;;;;;;1.77;1.10;;;;;;;;;;4937537;28;20063;-81
2021/05/28 03:00:42;;;;;;;1.67;1.02;;;;;;;;;;4925611;28;20106;-82
2021/05/28 03:03:14;;;;;;;1.60;1.10;;;;;;;;;;4922840;28;20043;-80
2021/05/28 03:05:40;;;;;;;1.50;0.90;;;;;;;;;;4934724;28;20079;-83
2021/05/28 03:08:06;;;;;;;2.13;1.10;;;;;;;;;;4939406;28;20055;-82
2021/05/28 03:10:34;;;;;;;2.10;1.10;;;;;;;;;;4940284;28;20051;-82
2021/05/28 03:13:01;;;;;;;1.77;1.25;;;;;;;;;;4912015;28;20099;-80
2021/05/28 03:15:27;;;;;;;1.98;1.27;;;;;;;;;;4926178;28;20122;-82
2021/05/28 03:17:53;;;;;;;2.10;1.00;;;;;;;;;;4943552;28;20115;-81
2021/05/28 03:20:24;;;;;;;1.73;1.20;;;;;;;;;;4915201;28;20039;-81
2021/05/28 03:22:50;;;;;;;1.42;0.95;;;;;;;;;;4922744;28;20070;-81
2021/05/28 03:25:17;;;;;;;1.63;1.00;;;;;;;;;;4924033;28;20083;-80
2021/05/28 03:27:47;;;;;;;1.73;1.13;;;;;;;;;;4937531;28;20130;-81
2021/05/28 03:30:14;;;;;;;1.52;1.05;;;;;;;;;;4919760;28;20118;-80
2021/05/28 03:32:41;;;;;;;1.60;1.00;;;;;;;;;;4935878;28;20043;-80
2021/05/28 03:35:08;;;;;;;2.45;1.10;;;;;;;;;;4919707;28;20059;-81
2021/05/28 03:37:34;;;;;;;1.63;1.08;;;;;;;;;;4918137;28;20591;-81
2021/05/28 03:40:01;;;;;;;1.48;1.05;;;;;;;;;;4927621;28;20609;-80
2021/05/28 03:42:28;;;;;;;1.65;1.10;;;;;;;;;;4922184;28;20694;-80
2021/05/28 03:44:57;;;;;;;2.13;1.25;;;;;;;;;;4920104;28;20071;-79
2021/05/28 03:47:23;;;;;;;3.45;1.20;;;;;;;;;;4919379;28;20508;-78
2021/05/28 03:49:50;;;;;;;1.40;1.00;;;;;;;;;;4915729;29;20084;-79
2021/05/28 03:52:16;;;;;;;2.53;1.30;;;;;;;;;;4915250;28;20063;-78
2021/05/28 03:54:43;;;;;;;1.25;1.02;;;;;;;;;;4912257;28;20067;-78
2021/05/28 03:57:09;;;;;;;1.50;1.10;;;;;;;;;;4913312;28;20095;-79
2021/05/28 03:59:35;;;;;;;1.58;1.10;;;;;;;;;;4935947;28;20767;-77
2021/05/28 04:02:02;;;;;;;2.65;1.23;;;;;;;;;;4932368;28;20066;-77
2021/05/28 04:04:29;;;;;;;3.30;1.10;;;;;;;;;;4931088;28;20413;-78
2021/05/28 04:06:55;;;;;;;5.65;1.23;;;;;;;;;;4927300;28;20035;-75
2021/05/28 04:09:22;;;;;;;9.23;3.33;;;;;;;;;;4922010;28;20056;-78
2021/05/28 04:11:48;;;;;;;20.63;6.07;;;;;;;;;;4918277;28;20047;-76
2021/05/28 04:14:15;;;;;;;23.90;6.78;;;;;;;;;;4932425;28;20535;-75
2021/05/28 04:16:42;;;;;;;19.90;5.85;;;;;;;;;;4914814;28;20087;-76
2021/05/28 04:19:09;;;;;;;19.13;5.45;;;;;;;;;;4931580;28;20059;-76
2021/05/28 04:21:36;;;;;;;16.50;4.82;;;;;;;;;;4929834;28;20047;-76
2021/05/28 04:24:02;;;;;;;16.13;4.65;;;;;;;;;;4933562;28;20071;-77
2021/05/28 04:26:29;;;;;;;15.27;4.88;;;;;;;;;;4928428;28;20125;-76
2021/05/28 04:28:55;;;;;;;12.50;3.90;;;;;;;;;;4919107;28;20496;-77
2021/05/28 04:31:22;;;;;;;16.40;3.90;;;;;;;;;;4934013;28;20145;-80
2021/05/28 04:33:48;;;;;;;11.68;3.45;;;;;;;;;;4939442;28;20063;-76
2021/05/28 04:36:15;;;;;;;14.48;3.53;;;;;;;;;;4929911;28;20067;-76
2021/05/28 04:38:41;;;;;;;12.20;3.40;;;;;;;;;;4934441;28;20055;-77
2021/05/28 04:41:08;;;;;;;10.40;3.20;;;;;;;;;;4930420;28;20068;-76
2021/05/28 04:43:34;;;;;;;8.38;3.53;;;;;;;;;;4919923;28;20508;-76
2021/05/28 04:46:01;;;;;;;7.18;3.20;;;;;;;;;;4911963;28;20071;-77
2021/05/28 04:48:27;;;;;;;10.05;3.15;;;;;;;;;;4918534;28;20063;-76
2021/05/28 04:50:53;;;;;;;9.57;3.33;;;;;;;;;;4917576;28;20052;-78
2021/05/28 04:53:20;;;;;;;10.80;3.47;;;;;;;;;;4935705;28;20143;-82
2021/05/28 04:55:46;;;;;;;7.38;2.70;;;;;;;;;;4917144;28;20043;-79
2021/05/28 04:58:13;;;;;;;10.00;2.92;;;;;;;;;;4924719;28;20068;-77
2021/05/28 05:00:39;;;;;;;8.70;2.70;;;;;;;;;;4919382;28;20178;-77
2021/05/28 05:03:05;;;;;;;8.07;2.80;;;;;;;;;;4917593;28;20070;-77
2021/05/28 05:05:32;;;;;;;6.50;2.80;;;;;;;;;;4930212;28;20795;-77
2021/05/28 05:07:59;;;;;;;6.10;2.70;;;;;;;;;;4929198;28;20067;-79
2021/05/28 05:10:26;;;;;;;8.00;2.40;;;;;;;;;;4905995;29;20114;-77
2021/05/28 05:12:52;;;;;;;6.72;2.63;;;;;;;;;;4939345;28;20520;-77
2021/05/28 05:15:18;;;;;;;8.27;2.65;;;;;;;;;;4920883;28;20071;-77
2021/05/28 05:17:45;;;;;;;9.52;2.45;;;;;;;;;;4914832;29;20048;-77
2021/05/28 05:20:12;;;;;;;7.10;2.50;;;;;;;;;;4948579;28;20067;-77
2021/05/28 05:22:38;;;;;;;6.35;2.22;;;;;;;;;;4917924;28;20064;-77
2021/05/28 05:25:08;;;;;;;7.15;2.15;;;;;;;;;;4948213;28;20035;-77
2021/05/28 05:27:34;;;;;;;5.18;2.13;;;;;;;;;;4926869;28;20052;-77
2021/05/28 05:30:01;;;;;;;7.68;2.53;;;;;;;;;;4940157;28;20130;-77
2021/05/28 05:32:28;;;;;;;7.47;2.42;;;;;;;;;;4923533;28;20330;-78
2021/05/28 05:34:55;;;;;;;4.75;1.90;;;;;;;;;;4927738;28;20475;-78
2021/05/28 05:37:22;;;;;;;4.95;1.88;;;;;;;;;;4934612;28;20047;-77
2021/05/28 05:39:48;;;;;;;6.47;2.10;;;;;;;;;;4937527;28;20887;-79
2021/05/28 05:42:15;;;;;;;4.03;1.67;;;;;;;;;;4918012;28;20075;-79
2021/05/28 05:44:41;;;;;;;5.57;2.28;;;;;;;;;;4934822;28;20153;-79
2021/05/28 05:47:08;;;;;;;4.25;1.80;;;;;;;;;;4920760;28;20055;-79
2021/05/28 05:49:35;;;;;;;4.38;1.90;;;;;;;;;;4940545;28;20587;-79
2021/05/28 05:52:03;;;;;;;4.90;2.00;;;;;;;;;;4938733;28;20071;-78
2021/05/28 05:54:30;;;;;;;5.47;2.00;;;;;;;;;;4940862;28;20082;-79
2021/05/28 05:56:57;;;;;;;4.97;1.90;;;;;;;;;;4922870;28;20066;-80
2021/05/28 05:59:24;;;;;;;5.22;1.95;;;;;;;;;;4919358;28;20067;-79
2021/05/28 06:01:51;;;;;;;4.38;1.77;;;;;;;;;;4916774;28;20036;-79
2021/05/28 06:04:20;;;;;;;5.90;2.00;;;;;;;;;;4934374;28;20075;-79
2021/05/28 06:06:47;;;;;;;4.53;1.70;;;;;;;;;;4935526;28;20803;-78
2021/05/28 06:09:13;;;;;;;5.88;1.75;;;;;;;;;;4922893;28;20063;-79
2021/05/28 06:11:40;;;;;;;3.00;1.42;;;;;;;;;;4938727;28;20579;-79
2021/05/28 06:14:09;;;;;;;7.38;1.73;;;;;;;;;;4937638;28;20600;-78
2021/05/28 06:16:35;;;;;;;4.38;1.60;;;;;;;;;;4923501;28;20452;-79
2021/05/28 06:19:02;;;;;;;4.22;1.60;;;;;;;;;;4923751;28;20063;-78
2021/05/28 06:21:31;;;;;;;2.97;1.40;;;;;;;;;;4924154;28;20663;-79
2021/05/28 06:23:57;;;;;;;3.22;1.60;;;;;;;;;;4921370;28;20051;-79
2021/05/28 06:26:23;;;;;;;3.83;1.55;;;;;;;;;;4933495;28;20098;-79
2021/05/28 06:28:50;;;;;;;4.15;1.90;;;;;;;;;;4939662;28;20067;-79
2021/05/28 06:31:17;;;;;;;6.05;1.75;;;;;;;;;;4930505;28;20063;-78
2021/05/28 06:33:44;;;;;;;6.72;1.70;;;;;;;;;;4934303;28;20446;-79
2021/05/28 06:36:10;;;;;;;3.97;1.60;;;;;;;;;;4920036;28;20070;-79
2021/05/28 06:38:36;;;;;;;5.72;1.80;;;;;;;;;;4931706;28;20119;-79
2021/05/28 06:41:03;;;;;;;2.83;1.45;;;;;;;;;;4919767;28;20578;-78
2021/05/28 06:43:29;;;;;;;4.13;1.65;;;;;;;;;;4927993;28;20063;-79
2021/05/28 06:45:56;;;;;;;2.83;1.45;;;;;;;;;;4936635;28;20066;-79
2021/05/28 06:48:22;;;;;;;4.55;1.58;;;;;;;;;;4942375;28;20575;-79
2021/05/28 06:50:49;;;;;;;4.10;1.40;;;;;;;;;;4937300;28;20062;-79
2021/05/28 06:53:15;;;;;;;3.05;1.40;;;;;;;;;;4932665;28;20129;-79
2021/05/28 06:55:42;;;;;;;3.17;1.60;;;;;;;;;;4940496;28;20445;-78
2021/05/28 06:58:08;;;;;;;4.40;1.52;;;;;;;;;;4934004;28;20126;-79
2021/05/28 07:00:35;;;;;;;3.40;1.52;;;;;;;;;;4930583;28;20054;-79
2021/05/28 07:03:01;;;;;;;3.42;1.40;;;;;;;;;;4937476;28;20068;-78
2021/05/28 07:05:28;;;;;;;1.88;1.27;;;;;;;;;;4912944;28;20079;-79
2021/05/28 07:07:56;;;;;;;4.32;1.33;;;;;;;;;;4920866;28;20143;-80
2021/05/28 07:10:22;;;;;;;4.60;1.50;;;;;;;;;;4932005;28;20123;-78
2021/05/28 07:12:49;;;;;;;2.08;1.17;;;;;;;;;;4924297;28;20063;-78
2021/05/28 07:15:16;;;;;;;3.55;1.40;;;;;;;;;;4921291;28;20130;-78
2021/05/28 07:17:43;;;;;;;4.07;1.42;;;;;;;;;;4924602;28;20052;-78
2021/05/28 07:20:09;;;;;;;3.17;1.23;;;;;;;;;;4909751;28;20094;-78
2021/05/28 07:22:36;;;;;;;2.50;1.50;;;;;;;;;;4925763;28;20118;-78
2021/05/28 07:25:03;;;;;;;2.10;1.10;;;;;;;;;;4937396;28;20590;-77
2021/05/28 07:27:30;;;;;;;3.35;1.77;;;;;;;;;;4934409;28;20181;-78
2021/05/28 07:29:57;;;;;;;2.47;1.63;;;;;;;;;;4935096;28;20942;-79
2021/05/28 07:32:23;;;;;;;2.78;1.52;;;;;;;;;;4913794;28;20071;-79
2021/05/28 07:34:50;;;;;;;2.60;1.20;;;;;;;;;;4926439;28;20520;-78
2021/05/28 07:37:17;;;;;;;1.98;1.33;;;;;;;;;;4915532;28;20514;-80
2021/05/28 07:39:43;;;;;;;3.25;1.35;;;;;;;;;;4931170;28;20135;-80
2021/05/28 07:42:10;;;;;;;3.58;1.50;;;;;;;;;;4917765;28;20062;-79
2021/05/28 07:44:36;;;;;;;3.88;1.42;;;;;;;;;;4921151;28;20383;-79
2021/05/28 07:47:03;;;;;;;3.65;1.50;;;;;;;;;;4933040;28;20151;-80
2021/05/28 07:49:29;;;;;;;4.97;1.90;;;;;;;;;;4921346;28;20118;-80
2021/05/28 07:51:55;;;;;;;3.10;1.30;;;;;;;;;;4934105;28;20068;-79
2021/05/28 07:54:22;;;;;;;3.40;1.35;;;;;;;;;;4931201;28;20119;-77
2021/05/28 07:56:48;;;;;;;3.95;1.45;;;;;;;;;;4920264;28;20583;-77
2021/05/28 07:59:15;;;;;;;1.77;1.20;;;;;;;;;;4948683;28;20074;-77
2021/05/28 08:01:44;;;;;;;3.05;1.20;;;;;;;;;;4913607;28;20063;-77
2021/05/28 08:04:11;;;;;;;2.80;1.30;;;;;;;;;;4917119;28;20138;-77
2021/05/28 08:06:37;;;;;;;4.35;1.45;;;;;;;;;;4927873;28;20063;-76
2021/05/28 08:09:04;;;;;;;3.13;1.52;;;;;;;;;;4946008;28;20082;-77
2021/05/28 08:11:31;;;;;;;2.45;1.33;;;;;;;;;;4920736;28;20067;-78
2021/05/28 08:13:58;;;;;;;2.70;1.23;;;;;;;;;;4940763;28;20059;-78
2021/05/28 08:16:24;;;;;;;2.92;1.30;;;;;;;;;;4921267;28;20050;-77
2021/05/28 08:18:51;;;;;;;1.75;1.20;;;;;;;;;;4923705;28;20063;-78
2021/05/28 08:21:17;;;;;;;2.95;1.40;;;;;;;;;;4939574;28;20039;-78
2021/05/28 08:23:44;;;;;;;3.58;1.50;;;;;;;;;;4923404;28;20095;-77
2021/05/28 08:26:10;;;;;;;4.25;1.40;;;;;;;;;;4931839;28;20040;-77
2021/05/28 08:28:36;;;;;;;3.20;1.40;;;;;;;;;;4911810;28;20074;-77
2021/05/28 08:31:04;;;;;;;3.67;1.35;;;;;;;;;;4930600;28;20082;-77
2021/05/28 08:33:30;;;;;;;5.70;1.70;;;;;;;;;;4907661;28;20048;-77
2021/05/28 08:35:57;;;;;;;2.75;1.25;;;;;;;;;;4928762;28;20632;-76
2021/05/28 08:38:23;;;;;;;3.40;1.38;;;;;;;;;;4928710;28;20400;-77
2021/05/28 08:40:50;;;;;;;2.35;1.30;;;;;;;;;;4927841;28;20055;-78
2021/05/28 08:43:16;;;;;;;3.47;1.67;;;;;;;;;;4931526;28;20158;-78
2021/05/28 08:45:44;;;;;;;2.20;1.20;;;;;;;;;;4937052;28;20063;-81
2021/05/28 08:48:11;;;;;;;3.53;1.40;;;;;;;;;;4914098;28;20036;-79
2021/05/28 08:50:38;;;;;;;4.55;1.55;;;;;;;;;;4924924;28;20447;-78
2021/05/28 08:53:05;;;;;;;4.68;1.50;;;;;;;;;;4932224;28;20082;-78
2021/05/28 08:55:32;;;;;;;2.35;1.20;;;;;;;;;;4925568;28;20067;-79
2021/05/28 08:57:58;;;;;;;2.42;1.40;;;;;;;;;;4925158;28;20056;-78
2021/05/28 09:00:28;;;;;;;4.10;1.40;;;;;;;;;;4931259;28;20060;-78
2021/05/28 09:02:54;;;;;;;3.17;1.45;;;;;;;;;;4935428;28;20107;-79
2021/05/28 09:05:23;;;;;;;2.83;1.10;;;;;;;;;;4923407;28;20104;-78
2021/05/28 09:08:00;;;;;;;3.05;1.38;;;;;;;;;;4913936;28;20071;-78
2021/05/28 09:10:27;;;;;;;2.85;1.50;;;;;;;;;;4938345;28;20039;-78
2021/05/28 09:12:54;;;;;;;3.40;1.33;;;;;;;;;;4943520;28;20067;-79
2021/05/28 09:15:21;;;;;;;4.35;1.60;;;;;;;;;;4939509;28;20055;-78
2021/05/28 09:17:53;;;;;;;3.70;1.30;;;;;;;;;;4914071;28;20422;-79
2021/05/28 09:20:20;;;;;;;3.42;1.52;;;;;;;;;;4907408;28;20028;-78
2021/05/28 09:22:47;;;;;;;2.35;1.13;;;;;;;;;;4924288;28;20472;-78
2021/05/28 09:25:15;;;;;;;2.20;1.23;;;;;;;;;;4927284;28;20067;-78
2021/05/28 09:27:47;;;;;;;3.75;1.17;;;;;;;;;;4942521;28;20134;-79
2021/05/28 09:30:15;;;;;;;3.38;1.40;;;;;;;;;;4924548;28;20119;-79
2021/05/28 09:32:43;;;;;;;3.10;1.40;;;;;;;;;;4929448;28;20161;-79
2021/05/28 09:35:11;;;;;;;3.15;1.38;;;;;;;;;;4918586;28;20056;-79
2021/05/28 09:37:52;;;;;;;3.08;1.30;;;;;;;;;;4937673;28;20539;-79
2021/05/28 09:40:32;;;;;;;4.55;1.35;;;;;;;;;;4930198;28;20736;-79
2021/05/28 09:43:02;;;;;;;1.95;1.15;;;;;;;;;;4917180;28;20071;-79
2021/05/28 09:45:30;;;;;;;3.72;1.38;;;;;;;;;;4925937;28;20644;-79
2021/05/28 09:47:58;;;;;;;4.88;1.50;;;;;;;;;;4936854;28;20032;-79
2021/05/28 09:50:25;;;;;;;3.65;1.30;;;;;;;;;;4940061;28;20059;-78
2021/05/28 09:52:51;;;;;;;2.67;1.33;;;;;;;;;;4931861;28;20512;-79
2021/05/28 09:55:18;;;;;;;2.58;1.20;;;;;;;;;;4936257;28;20047;-78
2021/05/28 09:57:47;;;;;;;3.13;1.40;;;;;;;;;;4942935;28;20062;-78
2021/05/28 10:00:28;;;;;;;2.80;1.20;;;;;;;;;;4918523;28;20142;-78
2021/05/28 10:03:19;;;;;;;2.30;1.42;;;;;;;;;;4922680;28;20059;-78
2021/05/28 10:05:50;;;;;;;3.63;1.40;;;;;;;;;;4914493;28;20484;-78
2021/05/28 10:08:17;;;;;;;;;;;;;;;;;;4917163;28;20445;-77
2021/05/28 10:10:44;;;;;;;2.20;1.10;;;;;;;;;;4923699;28;20294;-79
2021/05/28 10:13:12;;;;;;;2.60;1.50;;;;;;;;;;4923268;28;20051;-79
2021/05/28 10:15:40;;;;;;;2.17;1.40;;;;;;;;;;4927674;28;20060;-78
2021/05/28 10:18:07;;;;;;;2.75;1.40;;;;;;;;;;4916470;28;20095;-78
2021/05/28 10:20:34;;;;;;;2.75;1.60;;;;;;;;;;4926697;28;20110;-78
2021/05/28 10:23:01;;;;;;;3.47;1.40;;;;;;;;;;4932820;28;20050;-79
2021/05/28 10:25:27;;;;;;;3.22;1.30;;;;;;;;;;4914918;28;20207;-81
2021/05/28 10:27:55;;;;;;;2.78;1.27;;;;;;;;;;4932847;28;20064;-80
2021/05/28 10:30:23;;;;;;;5.22;2.40;;;;;;;;;;4924885;28;20079;-80
2021/05/28 10:33:08;;;;;;;2.28;1.20;;;;;;;;;;4930670;28;20106;-78
2021/05/28 10:35:41;;;;;;;2.50;1.60;;;;;;;;;;4936525;28;20051;-78
2021/05/28 10:38:26;;;;;;;3.25;1.52;;;;;;;;;;4920099;28;20166;-78
2021/05/28 10:40:53;;;;;;;4.63;1.52;;;;;;;;;;4923148;28;20071;-81
2021/05/28 10:43:22;;;;;;;2.72;1.45;;;;;;;;;;4931564;28;20486;-79
2021/05/28 10:46:01;;;;;;;3.00;1.25;;;;;;;;;;4925962;28;20491;-79
2021/05/28 10:48:41;;;;;;;4.28;1.50;;;;;;;;;;4937534;28;20091;-79
2021/05/28 10:51:09;;;;;;;5.57;1.92;;;;;;;;;;4936906;28;20067;-79
2021/05/28 10:53:36;;;;;;;5.40;1.48;;;;;;;;;;4926075;28;20048;-79
2021/05/28 10:56:06;;;;;;;3.20;1.30;;;;;;;;;;4938653;28;20046;-79
2021/05/28 10:58:52;;;;;;;2.10;1.23;;;;;;;;;;4918714;28;20619;-79
2021/05/28 11:01:33;;;;;;;2.75;1.40;;;;;;;;;;4922842;28;20067;-80
2021/05/28 11:04:04;;;;;;;2.88;1.35;;;;;;;;;;4914696;28;20039;-79
2021/05/28 11:06:34;;;;;;;3.60;1.73;;;;;;;;;;4916286;28;22482;-79
2021/05/28 11:09:05;;;;;;;2.78;1.38;;;;;;;;;;4914434;28;20064;-80
2021/05/28 11:11:38;;;;;;;4.72;1.60;;;;;;;;;;4927916;28;20044;-80
2021/05/28 11:14:09;;;;;;;2.42;1.20;;;;;;;;;;4914355;28;20079;-81
2021/05/28 11:16:56;;;;;;;2.85;1.40;;;;;;;;;;4913944;28;20059;-80
2021/05/28 11:19:26;;;;;;;3.88;1.30;;;;;;;;;;4931734;28;20634;-80
2021/05/28 11:21:53;;;;;;;3.03;1.30;;;;;;;;;;4912589;28;20071;-78
2021/05/28 11:24:20;;;;;;;3.47;1.58;;;;;;;;;;4933164;28;20486;-80
2021/05/28 11:26:47;;;;;;;3.17;1.30;;;;;;;;;;4934140;28;20078;-82
2021/05/28 11:29:20;;;;;;;3.28;1.65;;;;;;;;;;4910853;28;20122;-81
2021/05/28 11:31:46;;;;;;;2.97;1.50;;;;;;;;;;4902898;29;20067;-81
2021/05/28 11:34:14;;;;;;;3.00;1.40;;;;;;;;;;4931946;28;20071;-81
2021/05/28 11:36:42;;;;;;;3.30;1.58;;;;;;;;;;4934052;28;20440;-81
2021/05/28 11:39:08;;;;;;;3.53;1.58;;;;;;;;;;4917646;28;20055;-82
2021/05/28 11:41:42;;;;;;;2.92;1.50;;;;;;;;;;4928905;28;20096;-81
2021/05/28 11:44:11;;;;;;;1.75;1.15;;;;;;;;;;4903124;28;20524;-81
2021/05/28 11:46:41;;;;;;;2.55;1.30;;;;;;;;;;4942831;28;20064;-81
2021/05/28 11:49:07;;;;;;;5.43;1.40;;;;;;;;;;4927630;28;20507;-81
2021/05/28 11:51:34;;;;;;;3.25;1.10;;;;;;;;;;4935264;28;20803;-81
2021/05/28 11:54:01;;;;;;;2.58;1.30;;;;;;;;;;4928418;28;20480;-81
2021/05/28 11:56:28;;;;;;;2.75;1.50;;;;;;;;;;4922082;28;20982;-81
2021/05/28 11:58:54;;;;;;;2.45;1.27;;;;;;;;;;4938981;28;20063;-81
2021/05/28 12:01:20;;;;;;;3.60;1.40;;;;;;;;;;4920409;28;20516;-81
2021/05/28 12:03:47;;;;;;;2.75;1.60;;;;;;;;;;4937768;28;20507;-80
2021/05/28 12:06:13;;;;;;;2.85;1.48;;;;;;;;;;4952725;28;20083;-80
2021/05/28 12:08:43;;;;;;;3.55;1.30;;;;;;;;;;4930772;28;20130;-81
2021/05/28 12:11:10;;;;;;;3.28;1.30;;;;;;;;;;4925735;28;20093;-81
2021/05/28 12:13:37;;;;;;;6.93;1.60;;;;;;;;;;4921381;28;20068;-81
2021/05/28 12:16:05;;;;;;;2.53;1.30;;;;;;;;;;4931271;28;20107;-81
2021/05/28 12:18:40;;;;;;;3.50;1.20;;;;;;;;;;4933591;28;20067;-81
2021/05/28 12:21:09;;;;;;;2.50;1.20;;;;;;;;;;4930628;28;20067;-80
2021/05/28 12:23:35;;;;;;;2.42;1.40;;;;;;;;;;4940403;28;20044;-81
2021/05/28 12:26:03;;;;;;;3.28;1.60;;;;;;;;;;4922649;28;20067;-80
2021/05/28 12:28:50;;;;;;;3.42;1.63;;;;;;;;;;4918469;28;20036;-79
2021/05/28 12:31:18;;;;;;;2.85;1.70;;;;;;;;;;4896630;28;20463;-80
2021/05/28 12:33:51;;;;;;;3.90;1.58;;;;;;;;;;4925699;28;20047;-79
2021/05/28 12:36:18;;;;;;;2.28;1.30;;;;;;;;;;4928947;28;20073;-79
2021/05/28 12:38:45;;;;;;;2.78;1.45;;;;;;;;;;4930707;28;20067;-80
2021/05/28 12:41:13;;;;;;;3.45;1.40;;;;;;;;;;4934475;28;20048;-80
2021/05/28 12:43:42;;;;;;;2.50;1.50;;;;;;;;;;4930467;28;20083;-81
2021/05/28 12:46:18;;;;;;;4.15;1.50;;;;;;;;;;4913053;28;20110;-79
2021/05/28 12:48:55;;;;;;;3.80;1.40;;;;;;;;;;4911956;28;20567;-80
2021/05/28 12:51:34;;;;;;;3.03;1.60;;;;;;;;;;4928141;28;20096;-80
2021/05/28 12:54:03;;;;;;;16.77;4.80;;;;;;;;;;4929266;28;20075;-81
2021/05/28 12:56:29;;;;;;;7.97;4.90;;;;;;;;;;4918717;28;20072;-83
2021/05/28 12:58:57;;;;;;;12.10;5.50;;;;;;;;;;4917316;29;20115;-83
2021/05/28 13:01:26;;;;;;;7.90;4.38;;;;;;;;;;4929354;28;20492;-83
2021/05/28 13:03:59;;;;;;;8.98;4.82;;;;;;;;;;4930357;28;20099;-81
2021/05/28 13:06:27;;;;;;;7.20;4.40;;;;;;;;;;4929770;28;20052;-82
2021/05/28 13:08:54;;;;;;;9.82;4.20;;;;;;;;;;4932195;28;20089;-79
2021/05/28 13:11:21;;;;;;;7.93;3.75;;;;;;;;;;4919026;28;20095;-79
2021/05/28 13:13:52;;;;;;;8.73;3.58;;;;;;;;;;4917551;28;20063;-80
2021/05/28 13:16:28;;;;;;;5.03;2.72;;;;;;;;;;4917885;28;20095;-79
2021/05/28 13:19:05;;;;;;;7.05;2.58;;;;;;;;;;4936810;28;20036;-79
2021/05/28 13:21:31;;;;;;;4.70;2.30;;;;;;;;;;4939585;28;20075;-80
2021/05/28 13:23:58;;;;;;;5.60;2.40;;;;;;;;;;4946187;28;20067;-79
2021/05/28 13:26:25;;;;;;;3.92;2.47;;;;;;;;;;4926737;28;20424;-79
2021/05/28 13:28:51;;;;;;;6.60;2.47;;;;;;;;;;4938667;28;20044;-79
2021/05/28 13:31:19;;;;;;;4.18;2.30;;;;;;;;;;4915024;28;20076;-79
2021/05/28 13:33:48;;;;;;;5.30;2.55;;;;;;;;;;4927517;28;20123;-80
2021/05/28 13:36:18;;;;;;;3.40;2.28;;;;;;;;;;4932430;28;20720;-79
2021/05/28 13:38:46;;;;;;;4.93;2.35;;;;;;;;;;4913994;28;20059;-79
2021/05/28 13:41:19;;;;;;;5.18;2.50;;;;;;;;;;4929732;28;20119;-78
2021/05/28 13:43:46;;;;;;;4.57;2.38;;;;;;;;;;4939360;28;20047;-79
2021/05/28 13:46:13;;;;;;;4.43;2.40;;;;;;;;;;4949676;28;20559;-79
2021/05/28 13:48:39;;;;;;;4.88;2.50;;;;;;;;;;4925754;28;20035;-80
2021/05/28 13:51:07;;;;;;;6.57;2.60;;;;;;;;;;4944127;28;20111;-80
2021/05/28 13:53:34;;;;;;;3.80;2.03;;;;;;;;;;4905464;29;20044;-78
2021/05/28 13:56:01;;;;;;;6.75;2.60;;;;;;;;;;4920053;28;20449;-80
2021/05/28 13:58:28;;;;;;;5.20;2.45;;;;;;;;;;4936533;28;20135;-80
2021/05/28 14:00:57;;;;;;;4.45;2.40;;;;;;;;;;4915974;28;20550;-81
2021/05/28 14:03:24;;;;;;;3.53;2.20;;;;;;;;;;4898478;28;20146;-81
2021/05/28 14:05:51;;;;;;;5.90;2.60;;;;;;;;;;4899954;29;20882;-80
2021/05/28 14:08:18;;;;;;;3.90;2.35;;;;;;;;;;4935498;28;20060;-81
2021/05/28 14:10:45;;;;;;;4.32;2.13;;;;;;;;;;4937577;28;20584;-83
2021/05/28 14:13:12;;;;;;;4.88;2.10;;;;;;;;;;4934463;28;20567;-81
2021/05/28 14:15:39;;;;;;;4.18;2.03;;;;;;;;;;4916413;28;20111;-80
2021/05/28 14:18:05;;;;;;;4.20;2.30;;;;;;;;;;4930198;28;20062;-82
2021/05/28 14:20:34;;;;;;;6.55;2.42;;;;;;;;;;4925187;28;20074;-82
2021/05/28 14:23:01;;;;;;;5.53;2.55;;;;;;;;;;4935275;28;20064;-81
2021/05/28 14:25:28;;;;;;;5.53;2.50;;;;;;;;;;4934036;28;20063;-82
2021/05/28 14:27:55;;;;;;;3.72;2.28;;;;;;;;;;4932159;28;20570;-81
2021/05/28 14:30:21;;;;;;;5.00;2.28;;;;;;;;;;4908282;28;20126;-80
2021/05/28 14:32:48;;;;;;;5.18;2.33;;;;;;;;;;4939821;28;20076;-80
2021/05/28 14:35:15;;;;;;;4.55;2.53;;;;;;;;;;4936105;28;20175;-80
2021/05/28 14:37:42;;;;;;;4.32;2.35;;;;;;;;;;4921485;28;20028;-80
2021/05/28 14:40:11;;;;;;;5.60;2.30;;;;;;;;;;4915003;28;20160;-82
2021/05/28 14:42:38;;;;;;;6.65;2.50;;;;;;;;;;4902826;29;20047;-79
2021/05/28 14:45:09;;;;;;;6.93;2.47;;;;;;;;;;4918996;28;20067;-81
2021/05/28 14:47:39;;;;;;;4.18;2.10;;;;;;;;;;4927718;28;20123;-81